Time;durP1;ratioP1;P1;durP2;ratioP2;P2;SDS_P1;SDS_P2;PMS_P1;PMS_P2;Temp;Humidity;BMP_temperature;BMP_pressure;BME280_temperature;BME280_humidity;BME280_pressure;Samples;Min_cycle;Max_cycle;Signal;HPM_P1;HPM_P2
2023/07/06 00:01:10;;;;;;;19.80;12.40;;;;;;;12.60;100.00;101401.91;5052599;28;20021;-47
2023/07/06 00:03:37;;;;;;;19.77;12.20;;;;;;;12.59;100.00;101410.50;5052686;28;20032;-49
2023/07/06 00:06:07;;;;;;;19.60;12.02;;;;;;;12.57;100.00;101405.28;5053263;28;20075;-46
2023/07/06 00:08:32;;;;;;;18.55;11.70;;;;;;;12.60;100.00;101407.09;5052311;28;20111;-47
2023/07/06 00:10:58;;;;;;;20.92;11.48;;;;;;;12.59;100.00;101413.09;5052798;28;20100;-45
2023/07/06 00:13:24;;;;;;;15.20;11.18;;;;;;;12.57;100.00;101412.19;5052592;28;20032;-48
2023/07/06 00:15:50;;;;;;;20.75;10.93;;;;;;;12.56;100.00;101406.09;5051719;28;20017;-45
2023/07/06 00:18:17;;;;;;;15.43;10.88;;;;;;;12.49;100.00;101410.22;5052826;28;20067;-47
2023/07/06 00:20:43;;;;;;;15.18;10.13;;;;;;;12.46;100.00;101406.66;5052670;28;20045;-45
2023/07/06 00:23:10;;;;;;;18.98;9.82;;;;;;;12.39;100.00;101408.19;5052142;28;20044;-48
2023/07/06 00:25:36;;;;;;;16.13;10.10;;;;;;;12.40;100.00;101409.94;5052133;28;20120;-47
2023/07/06 00:28:03;;;;;;;16.77;9.95;;;;;;;12.34;100.00;101409.75;5052035;28;20362;-49
2023/07/06 00:30:53;;;;;;;14.00;9.23;;;;;;;12.30;100.00;101407.91;5052641;28;20100;-48
2023/07/06 00:33:19;;;;;;;15.40;9.50;;;;;;;12.24;100.00;101403.44;5052619;28;20053;-48
2023/07/06 00:35:46;;;;;;;13.63;8.53;;;;;;;12.18;100.00;101411.84;5051995;28;20036;-48
2023/07/06 00:38:14;;;;;;;14.38;9.43;;;;;;;12.16;100.00;101412.63;5052535;28;20431;-47
2023/07/06 00:40:45;;;;;;;16.77;9.13;;;;;;;12.10;100.00;101418.47;5052399;28;20028;-45
2023/07/06 00:43:19;;;;;;;15.45;9.02;;;;;;;12.05;100.00;101411.41;5052285;28;20025;-47
2023/07/06 00:45:45;;;;;;;15.80;9.02;;;;;;;12.04;100.00;101420.84;5052000;28;20477;-47
2023/07/06 00:48:23;;;;;;;14.15;8.55;;;;;;;12.01;100.00;101410.44;5052599;28;20481;-48
2023/07/06 00:50:55;;;;;;;19.33;8.98;;;;;;;11.95;100.00;101412.78;5051943;28;20079;-49
2023/07/06 00:53:26;;;;;;;13.90;8.15;;;;;;;11.98;100.00;101418.06;5052582;28;20096;-48
2023/07/06 00:55:57;;;;;;;15.55;7.95;;;;;;;11.99;100.00;101414.66;5052574;28;20036;-49
2023/07/06 00:58:28;;;;;;;15.75;8.00;;;;;;;11.96;100.00;101414.56;5051794;28;20029;-44
2023/07/06 01:00:59;;;;;;;14.85;8.45;;;;;;;11.95;100.00;101411.09;5052282;28;20095;-46
2023/07/06 01:03:24;;;;;;;13.70;7.63;;;;;;;11.93;100.00;101411.84;5051406;28;20376;-48
2023/07/06 01:05:55;;;;;;;16.33;7.72;;;;;;;11.92;100.00;101413.56;5052295;28;20483;-48
2023/07/06 01:08:23;;;;;;;14.02;7.45;;;;;;;11.89;100.00;101407.41;5052704;28;20025;-48
2023/07/06 01:10:49;;;;;;;14.65;7.47;;;;;;;11.85;100.00;101404.72;5051974;28;20028;-48
2023/07/06 01:13:15;;;;;;;13.20;8.00;;;;;;;11.80;100.00;101411.44;5052283;28;20087;-47
2023/07/06 01:15:49;;;;;;;12.90;8.00;;;;;;;11.76;100.00;101404.44;5052076;28;20021;-47
2023/07/06 01:18:26;;;;;;;14.75;7.75;;;;;;;11.69;100.00;101411.06;5051773;28;20025;-48
2023/07/06 01:21:10;;;;;;;16.05;7.72;;;;;;;11.69;100.00;101417.94;5052068;28;20029;-47
2023/07/06 01:24:17;;;;;;;15.55;7.32;;;;;;;11.67;100.00;101412.75;5051760;28;20485;-49
2023/07/06 01:27:00;;;;;;;13.18;7.82;;;;;;;11.62;100.00;101410.81;5054076;28;20115;-47
2023/07/06 01:29:29;;;;;;;14.20;6.90;;;;;;;11.61;100.00;101415.09;5055837;28;20075;-46
2023/07/06 01:32:14;;;;;;;12.05;6.97;;;;;;;11.56;100.00;101414.06;5055338;28;20358;-45
2023/07/06 01:34:47;;;;;;;16.20;7.75;;;;;;;11.52;100.00;101412.22;5055111;28;20112;-47
2023/07/06 01:37:28;;;;;;;14.45;7.10;;;;;;;11.50;100.00;101414.75;5056098;28;20082;-48
2023/07/06 01:39:53;;;;;;;14.75;6.95;;;;;;;11.47;100.00;101404.28;5055480;28;20111;-47
2023/07/06 01:42:29;;;;;;;15.75;6.97;;;;;;;11.44;100.00;101411.94;5055462;28;20128;-49
2023/07/06 01:44:59;;;;;;;14.15;6.78;;;;;;;11.33;100.00;101414.13;5055540;28;20504;-48
2023/07/06 01:47:28;;;;;;;12.60;6.40;;;;;;;11.31;100.00;101410.63;5054751;28;20423;-49
2023/07/06 01:49:55;;;;;;;14.38;6.70;;;;;;;11.34;100.00;101409.84;5055296;28;20426;-48
2023/07/06 01:52:27;;;;;;;14.60;6.83;;;;;;;11.27;100.00;101408.78;5055700;28;20025;-48
2023/07/06 01:54:58;;;;;;;16.13;6.55;;;;;;;11.21;100.00;101408.53;5055664;28;20096;-48
2023/07/06 01:57:36;;;;;;;13.38;6.22;;;;;;;11.20;100.00;101410.22;5055262;28;20028;-48
2023/07/06 02:00:09;;;;;;;13.43;7.03;;;;;;;11.20;100.00;101407.66;5054867;28;20028;-47
2023/07/06 02:02:36;;;;;;;16.77;6.57;;;;;;;11.15;100.00;101409.19;5055049;28;20079;-48
2023/07/06 02:05:02;;;;;;;11.52;6.78;;;;;;;11.11;100.00;101406.44;5055219;28;20024;-49
2023/07/06 02:07:28;;;;;;;16.35;6.78;;;;;;;11.10;100.00;101412.44;5054357;28;20497;-47
2023/07/06 02:09:54;;;;;;;12.65;6.32;;;;;;;11.03;100.00;101414.78;5055081;28;20049;-48
2023/07/06 02:12:21;;;;;;;14.88;7.05;;;;;;;11.02;100.00;101417.31;5055099;28;20079;-47
2023/07/06 02:14:48;;;;;;;13.90;6.75;;;;;;;11.00;100.00;101418.94;5054332;28;20473;-47
2023/07/06 02:17:13;;;;;;;15.32;6.78;;;;;;;10.98;100.00;101411.16;5055046;28;20033;-45
2023/07/06 02:19:39;;;;;;;14.35;6.65;;;;;;;10.95;100.00;101410.16;5054789;28;20066;-48
2023/07/06 02:22:04;;;;;;;13.95;6.38;;;;;;;10.96;100.00;101407.66;5054558;28;20040;-44
2023/07/06 02:24:31;;;;;;;13.52;6.60;;;;;;;10.93;100.00;101404.94;5054325;28;20036;-46
2023/07/06 02:26:56;;;;;;;12.85;6.63;;;;;;;10.96;100.00;101401.59;5054941;28;20032;-47
2023/07/06 02:29:22;;;;;;;13.75;7.18;;;;;;;10.94;100.00;101404.13;5054276;28;20032;-49
2023/07/06 02:31:48;;;;;;;13.38;7.00;;;;;;;10.90;100.00;101401.38;5054751;28;20562;-48
2023/07/06 02:34:14;;;;;;;15.88;6.57;;;;;;;10.87;100.00;101402.13;5054966;28;20488;-48
2023/07/06 02:36:40;;;;;;;19.38;7.78;;;;;;;10.87;100.00;101403.03;5053784;28;20024;-48
2023/07/06 02:39:05;;;;;;;15.80;6.22;;;;;;;10.85;100.00;101403.78;5054339;28;20021;-49
2023/07/06 02:41:31;;;;;;;18.00;6.55;;;;;;;10.88;100.00;101409.03;5054294;28;20086;-49
2023/07/06 02:43:57;;;;;;;15.00;6.05;;;;;;;10.85;100.00;101399.50;5054153;28;20025;-49
2023/07/06 02:46:22;;;;;;;12.57;6.22;;;;;;;10.87;100.00;101413.34;5054445;28;20039;-43
2023/07/06 02:48:50;;;;;;;14.88;7.22;;;;;;;10.87;100.00;101408.19;5053956;28;20066;-47
2023/07/06 02:51:15;;;;;;;12.88;6.75;;;;;;;10.92;100.00;101416.06;5054330;28;20025;-47
2023/07/06 02:53:41;;;;;;;14.07;6.30;;;;;;;10.94;100.00;101408.41;5054234;28;20025;-48
2023/07/06 02:56:06;;;;;;;16.38;6.80;;;;;;;10.95;100.00;101398.16;5053830;28;20119;-48
2023/07/06 02:58:34;;;;;;;12.43;6.75;;;;;;;10.98;100.00;101415.44;5053963;28;20025;-49
2023/07/06 03:00:59;;;;;;;16.98;6.60;;;;;;;11.01;100.00;101412.97;5054560;28;20029;-49
2023/07/06 03:03:26;;;;;;;14.52;6.40;;;;;;;11.03;100.00;101409.63;5053407;28;20550;-49
2023/07/06 03:05:52;;;;;;;14.38;6.40;;;;;;;11.06;100.00;101414.00;5054050;28;20052;-47
2023/07/06 03:08:17;;;;;;;12.02;6.30;;;;;;;11.03;100.00;101408.75;5054095;28;20025;-49
2023/07/06 03:10:46;;;;;;;15.07;6.50;;;;;;;11.06;100.00;101413.16;5053119;28;20025;-49
2023/07/06 03:13:15;;;;;;;16.02;6.85;;;;;;;11.08;100.00;101412.38;5053776;28;20440;-48
2023/07/06 03:15:41;;;;;;;15.80;6.55;;;;;;;11.08;100.00;101411.47;5053568;28;20017;-46
2023/07/06 03:18:07;;;;;;;14.43;6.20;;;;;;;11.11;100.00;101409.91;5053454;28;20079;-48
2023/07/06 03:20:36;;;;;;;14.10;6.68;;;;;;;11.15;100.00;101416.91;5053337;28;20416;-46
2023/07/06 03:23:02;;;;;;;20.50;7.78;;;;;;;11.17;100.00;101414.41;5053492;28;20109;-49
2023/07/06 03:25:28;;;;;;;19.55;7.45;;;;;;;11.18;100.00;101411.88;5052751;28;20123;-46
2023/07/06 03:27:54;;;;;;;15.77;6.57;;;;;;;11.18;100.00;101424.78;5053375;28;20033;-45
2023/07/06 03:30:22;;;;;;;15.80;6.43;;;;;;;11.20;100.00;101425.72;5053772;28;20029;-48
2023/07/06 03:32:48;;;;;;;14.07;6.20;;;;;;;11.19;100.00;101423.06;5052982;28;20064;-47
2023/07/06 03:35:14;;;;;;;18.73;7.00;;;;;;;11.23;100.00;101426.66;5053453;28;20098;-46
2023/07/06 03:37:45;;;;;;;14.38;7.20;;;;;;;11.23;100.00;101426.66;5053195;28;20028;-44
2023/07/06 03:40:12;;;;;;;16.20;6.70;;;;;;;11.25;100.00;101432.75;5053227;28;20036;-43
2023/07/06 03:42:39;;;;;;;14.00;6.47;;;;;;;11.27;100.00;101432.00;5053171;28;20032;-44
2023/07/06 03:45:05;;;;;;;13.40;6.35;;;;;;;11.28;100.00;101435.44;5052949;28;20028;-49
2023/07/06 03:47:33;;;;;;;17.23;6.90;;;;;;;11.28;100.00;101444.03;5052901;28;20029;-43
2023/07/06 03:49:58;;;;;;;;;;;;;;;11.35;100.00;101447.75;5052933;28;20110;-44
2023/07/06 03:52:24;;;;;;;18.88;6.43;;;;;;;11.30;100.00;101436.38;5052498;28;20351;-47
2023/07/06 03:54:49;;;;;;;21.42;6.70;;;;;;;11.34;100.00;101446.00;5052969;28;20028;-43
2023/07/06 03:57:16;;;;;;;15.80;6.10;;;;;;;11.31;100.00;101440.69;5053324;28;20032;-43
2023/07/06 03:59:42;;;;;;;15.02;6.05;;;;;;;11.32;100.00;101442.47;5052456;28;20029;-44
2023/07/06 04:02:09;;;;;;;15.30;6.13;;;;;;;11.32;100.00;101448.53;5052953;28;20029;-43
2023/07/06 04:04:35;;;;;;;14.60;6.28;;;;;;;11.33;100.00;101462.28;5052663;28;20021;-43
2023/07/06 04:07:00;;;;;;;15.93;6.70;;;;;;;11.33;100.00;101454.53;5052423;28;20032;-47
2023/07/06 04:09:28;;;;;;;13.60;5.70;;;;;;;11.30;100.00;101457.03;5052497;28;20457;-43
2023/07/06 04:11:54;;;;;;;11.93;6.65;;;;;;;11.30;100.00;101457.03;5053138;28;20087;-43
2023/07/06 04:14:24;;;;;;;15.75;7.13;;;;;;;11.28;100.00;101466.41;5052455;28;20100;-48
2023/07/06 04:16:55;;;;;;;15.93;6.97;;;;;;;11.27;100.00;101460.38;5052747;28;20025;-43
2023/07/06 04:19:21;;;;;;;21.83;6.95;;;;;;;11.28;100.00;101462.09;5052793;28;20033;-43
2023/07/06 04:21:47;;;;;;;19.42;7.45;;;;;;;11.32;100.00;101464.00;5052130;28;20021;-49
2023/07/06 04:24:13;;;;;;;20.27;7.90;;;;;;;11.33;100.00;101460.56;5052386;28;20059;-49
2023/07/06 04:26:40;;;;;;;20.40;7.05;;;;;;;11.39;100.00;101465.09;5052818;28;20461;-43
2023/07/06 04:29:09;;;;;;;15.45;7.55;;;;;;;11.40;100.00;101461.69;5052238;28;20079;-44
2023/07/06 04:31:39;;;;;;;20.88;7.70;;;;;;;11.40;100.00;101459.13;5052371;28;20032;-44
2023/07/06 04:34:05;;;;;;;13.45;6.85;;;;;;;11.42;100.00;101464.34;5052908;28;20031;-48
2023/07/06 04:36:33;;;;;;;21.30;7.80;;;;;;;11.44;100.00;101468.72;5051820;28;20040;-44
2023/07/06 04:38:59;;;;;;;17.73;7.22;;;;;;;11.48;100.00;101469.72;5052843;28;20025;-46
2023/07/06 04:41:28;;;;;;;20.20;7.25;;;;;;;11.47;100.00;101471.41;5051730;28;20082;-43
2023/07/06 04:43:55;;;;;;;22.10;8.57;;;;;;;11.48;100.00;101469.72;5052314;28;20033;-44
2023/07/06 04:46:21;;;;;;;19.25;7.72;;;;;;;11.48;100.00;101478.31;5052394;28;20032;-44
2023/07/06 04:48:49;;;;;;;15.25;7.38;;;;;;;11.49;100.00;101480.09;5051670;28;20032;-45
2023/07/06 04:51:15;;;;;;;15.60;7.93;;;;;;;11.52;100.00;101481.91;5052561;28;20021;-47
2023/07/06 04:53:42;;;;;;;20.27;8.23;;;;;;;11.55;100.00;101478.56;5052425;28;20428;-48
2023/07/06 04:56:08;;;;;;;20.42;8.73;;;;;;;11.57;100.00;101480.38;5052012;28;20059;-48
2023/07/06 04:58:33;;;;;;;20.73;9.13;;;;;;;11.59;100.00;101477.84;5052090;28;20106;-44
2023/07/06 05:01:06;;;;;;;24.52;9.85;;;;;;;11.64;100.00;101474.56;5053609;28;20029;-47
2023/07/06 05:03:33;;;;;;;21.80;9.60;;;;;;;11.67;100.00;101486.72;5055565;28;20381;-48
2023/07/06 05:06:05;;;;;;;24.92;10.30;;;;;;;11.73;100.00;101480.91;5056367;28;20048;-47
2023/07/06 05:08:31;;;;;;;18.65;9.27;;;;;;;11.75;100.00;101484.41;5056010;28;20424;-44
2023/07/06 05:10:57;;;;;;;23.90;10.05;;;;;;;11.75;100.00;101485.31;5055797;28;20104;-43
2023/07/06 05:13:22;;;;;;;26.42;10.48;;;;;;;11.77;100.00;101483.63;5055711;28;20109;-43
2023/07/06 05:15:49;;;;;;;24.58;10.73;;;;;;;11.80;100.00;101488.03;5056482;28;20040;-43
2023/07/06 05:18:19;;;;;;;21.75;10.90;;;;;;;11.84;100.00;101482.16;5055692;28;20385;-43
2023/07/06 05:20:44;;;;;;;25.90;10.93;;;;;;;11.91;100.00;101484.13;5055855;28;20036;-43
2023/07/06 05:23:11;;;;;;;24.50;11.10;;;;;;;11.94;100.00;101486.81;5055967;28;20033;-47
2023/07/06 05:25:36;;;;;;;26.95;11.13;;;;;;;11.99;100.00;101489.59;5054925;28;20035;-48
2023/07/06 05:28:02;;;;;;;26.50;11.50;;;;;;;12.11;100.00;101490.00;5055970;28;20100;-46
2023/07/06 05:30:28;;;;;;;25.63;11.98;;;;;;;12.16;100.00;101498.78;5055017;28;20028;-46
2023/07/06 05:32:53;;;;;;;25.55;12.77;;;;;;;12.26;100.00;101487.03;5055926;28;20036;-49
2023/07/06 05:35:19;;;;;;;30.85;13.32;;;;;;;12.34;100.00;101495.03;5056002;28;20017;-49
2023/07/06 05:37:44;;;;;;;31.23;14.40;;;;;;;12.37;100.00;101490.00;5054913;28;20044;-47
2023/07/06 05:40:10;;;;;;;32.97;15.30;;;;;;;12.38;100.00;101496.91;5055672;28;20056;-49
2023/07/06 05:42:36;;;;;;;37.47;16.38;;;;;;;12.45;100.00;101498.88;5055430;28;20378;-44
2023/07/06 05:45:01;;;;;;;36.75;15.68;;;;;;;12.47;100.00;101502.38;5055305;28;20103;-47
2023/07/06 05:47:27;;;;;;;34.55;16.15;;;;;;;12.55;100.00;101499.16;5055370;28;20104;-43
2023/07/06 05:49:53;;;;;;;41.63;17.67;;;;;;;12.59;100.00;101496.72;5055744;28;20461;-47
2023/07/06 05:52:18;;;;;;;29.55;15.80;;;;;;;12.63;100.00;101503.75;5055101;28;20040;-48
2023/07/06 05:54:43;;;;;;;33.85;17.77;;;;;;;12.70;100.00;101507.41;5055056;28;20028;-47
2023/07/06 05:57:09;;;;;;;38.65;17.83;;;;;;;12.78;100.00;101503.34;5055421;28;20126;-44
2023/07/06 05:59:37;;;;;;;34.30;16.52;;;;;;;12.85;100.00;101509.59;5054783;28;20028;-43
2023/07/06 06:02:04;;;;;;;37.28;17.05;;;;;;;12.97;100.00;101516.84;5055034;28;20017;-43
2023/07/06 06:04:30;;;;;;;36.85;16.48;;;;;;;12.92;100.00;101508.94;5055228;28;20036;-47
2023/07/06 06:06:56;;;;;;;36.00;16.70;;;;;;;12.94;100.00;101509.00;5054741;28;20021;-44
2023/07/06 06:09:24;;;;;;;35.97;17.20;;;;;;;12.93;100.00;101515.00;5055038;28;20025;-47
2023/07/06 06:11:50;;;;;;;33.40;17.17;;;;;;;12.99;100.00;101517.78;5054845;28;20108;-44
2023/07/06 06:14:16;;;;;;;40.72;17.33;;;;;;;13.08;100.00;101523.22;5054211;28;20109;-46
2023/07/06 06:16:41;;;;;;;35.72;17.05;;;;;;;13.12;100.00;101517.31;5054778;28;20107;-44
2023/07/06 06:19:07;;;;;;;35.22;16.65;;;;;;;13.10;100.00;101524.13;5055174;28;20109;-48
2023/07/06 06:21:33;;;;;;;36.97;16.45;;;;;;;13.09;100.00;101521.50;5054128;28;20378;-46
2023/07/06 06:24:00;;;;;;;32.70;17.42;;;;;;;13.14;100.00;101520.84;5054489;28;20120;-43
2023/07/06 06:26:27;;;;;;;38.95;16.83;;;;;;;13.22;100.00;101528.81;5054564;28;20430;-47
2023/07/06 06:28:52;;;;;;;36.20;16.52;;;;;;;13.29;100.00;101535.91;5054262;28;20017;-46
2023/07/06 06:31:19;;;;;;;31.35;15.32;;;;;;;13.30;100.00;101529.06;5054960;28;20036;-49
2023/07/06 06:33:45;;;;;;;29.60;15.57;;;;;;;13.33;100.00;101532.59;5054315;28;20021;-44
2023/07/06 06:36:13;;;;;;;32.20;16.30;;;;;;;13.45;100.00;101544.16;5054698;28;20035;-45
2023/07/06 06:38:42;;;;;;;29.38;15.82;;;;;;;13.61;100.00;101545.50;5054492;28;20025;-49
2023/07/06 06:41:08;;;;;;;34.58;15.38;;;;;;;13.64;100.00;101549.03;5054066;28;20468;-43
2023/07/06 06:43:40;;;;;;;32.60;15.90;;;;;;;13.68;100.00;101550.00;5054042;28;20033;-47
2023/07/06 06:46:10;;;;;;;30.02;15.18;;;;;;;13.74;100.00;101550.19;5054655;28;20115;-49
2023/07/06 06:48:35;;;;;;;29.90;16.30;;;;;;;13.77;100.00;101552.84;5053776;28;20032;-48
2023/07/06 06:51:02;;;;;;;32.50;16.63;;;;;;;13.89;100.00;101552.34;5054288;28;20028;-43
2023/07/06 06:53:28;;;;;;;39.30;18.25;;;;;;;14.11;100.00;101561.56;5054003;28;20381;-48
2023/07/06 06:55:55;;;;;;;30.70;17.42;;;;;;;14.28;100.00;101559.41;5054041;28;20029;-45
2023/07/06 06:58:24;;;;;;;32.88;16.70;;;;;;;14.36;100.00;101567.38;5054281;28;20025;-45
2023/07/06 07:00:57;;;;;;;31.20;17.02;;;;;;;14.37;100.00;101568.25;5054350;28;20381;-44
2023/07/06 07:03:23;;;;;;;32.15;18.40;;;;;;;14.43;100.00;101569.28;5053437;28;20031;-43
2023/07/06 07:05:48;;;;;;;34.63;17.95;;;;;;;14.53;100.00;101566.94;5053937;28;20028;-46
2023/07/06 07:08:14;;;;;;;32.75;18.73;;;;;;;14.75;100.00;101569.22;5054033;28;20035;-44
2023/07/06 07:10:39;;;;;;;33.88;18.95;;;;;;;14.80;100.00;101569.34;5053201;28;20029;-47
2023/07/06 07:13:04;;;;;;;32.35;19.02;;;;;;;14.85;100.00;101574.63;5053951;28;20108;-46
2023/07/06 07:15:30;;;;;;;38.22;18.27;;;;;;;14.87;100.00;101580.75;5053771;28;20471;-46
2023/07/06 07:17:57;;;;;;;36.42;18.05;;;;;;;14.95;100.00;101581.78;5053254;28;20025;-45
2023/07/06 07:20:22;;;;;;;31.63;17.58;;;;;;;15.05;100.00;101581.16;5053563;28;20029;-44
2023/07/06 07:22:48;;;;;;;28.85;17.05;;;;;;;15.15;100.00;101585.72;5053873;28;20052;-43
2023/07/06 07:25:17;;;;;;;33.97;17.83;;;;;;;15.07;100.00;101589.88;5053070;28;20401;-44
2023/07/06 07:27:42;;;;;;;32.78;17.10;;;;;;;15.19;100.00;101593.59;5053401;28;20582;-46
2023/07/06 07:30:08;;;;;;;33.03;18.70;;;;;;;15.17;100.00;101590.06;5053131;28;20052;-43
2023/07/06 07:32:34;;;;;;;33.35;18.33;;;;;;;15.37;100.00;101593.13;5053129;28;20082;-47
2023/07/06 07:34:59;;;;;;;30.70;18.75;;;;;;;15.46;100.00;101599.38;5053484;28;20104;-43
2023/07/06 07:37:25;;;;;;;33.00;19.67;;;;;;;15.64;100.00;101600.63;5052770;28;20036;-49
2023/07/06 07:39:51;;;;;;;35.72;19.75;;;;;;;15.72;100.00;101598.19;5053458;28;20024;-48
2023/07/06 07:42:19;;;;;;;33.00;19.48;;;;;;;15.86;100.00;101598.50;5053424;28;20450;-48
2023/07/06 07:44:45;;;;;;;31.90;20.67;;;;;;;15.82;100.00;101596.69;5052418;28;20397;-49
2023/07/06 07:47:18;;;;;;;33.58;20.98;;;;;;;15.86;100.00;101601.09;5053136;28;20025;-43
2023/07/06 07:49:45;;;;;;;41.35;22.88;;;;;;;15.93;100.00;101605.56;5053134;28;20043;-43
2023/07/06 07:52:12;;;;;;;31.70;21.05;;;;;;;15.86;100.00;101607.16;5052941;28;20021;-43
2023/07/06 07:54:38;;;;;;;35.30;21.60;;;;;;;15.84;100.00;101607.97;5052905;28;20112;-47
2023/07/06 07:57:04;;;;;;;35.55;21.48;;;;;;;16.05;100.00;101613.59;5053249;28;20397;-44
2023/07/06 07:59:29;;;;;;;31.33;19.80;;;;;;;16.16;100.00;101607.72;5052315;28;20020;-44
2023/07/06 08:01:56;;;;;;;35.67;20.80;;;;;;;16.12;100.00;101607.66;5052978;28;20384;-45
2023/07/06 08:04:21;;;;;;;31.65;19.15;;;;;;;16.60;100.00;101608.53;5052873;28;20029;-47
2023/07/06 08:06:47;;;;;;;30.23;19.25;;;;;;;16.59;100.00;101611.09;5052339;28;20027;-45
2023/07/06 08:09:13;;;;;;;33.83;17.00;;;;;;;16.62;100.00;101613.75;5053004;28;20116;-49
2023/07/06 08:11:45;;;;;;;31.27;16.45;;;;;;;16.67;100.00;101612.09;5052839;28;20021;-44
2023/07/06 08:14:11;;;;;;;25.38;16.02;;;;;;;16.64;100.00;101614.63;5052267;28;20021;-44
2023/07/06 08:16:38;;;;;;;34.92;16.33;;;;;;;16.89;100.00;101600.31;5052624;28;20103;-45
2023/07/06 08:19:05;;;;;;;34.03;15.82;;;;;;;17.11;100.00;101605.88;5053101;28;20032;-47
2023/07/06 08:21:31;;;;;;;26.00;14.40;;;;;;;17.15;100.00;101604.19;5051941;28;20029;-49
2023/07/06 08:23:58;;;;;;;29.48;14.68;;;;;;;17.05;100.00;101609.25;5052723;28;20102;-49
2023/07/06 08:26:24;;;;;;;25.17;14.52;;;;;;;16.97;100.00;101610.88;5051948;28;20419;-46
2023/07/06 08:28:50;;;;;;;26.33;14.48;;;;;;;17.14;100.00;101618.06;5052627;28;20538;-43
2023/07/06 08:31:18;;;;;;;27.17;15.55;;;;;;;17.25;99.54;101621.72;5052731;28;20032;-47
2023/07/06 08:33:46;;;;;;;23.15;14.32;;;;;;;17.38;99.49;101622.78;5052097;28;20052;-44
2023/07/06 08:36:13;;;;;;;27.10;15.98;;;;;;;17.51;100.00;101611.66;5052137;28;20032;-49
2023/07/06 08:38:39;;;;;;;;;;;;;;;17.82;100.00;101624.16;5052963;28;20028;-49
2023/07/06 08:41:26;;;;;;;24.90;16.38;;;;;;;18.10;96.07;101623.69;5052202;28;19913;-46
2023/07/06 08:43:53;;;;;;;25.80;16.10;;;;;;;18.20;94.83;101621.16;5052374;28;20036;-43
2023/07/06 08:46:20;;;;;;;27.05;15.95;;;;;;;18.17;93.79;101637.66;5052867;28;20025;-48
2023/07/06 08:48:46;;;;;;;28.05;17.08;;;;;;;17.99;92.89;101630.50;5051998;28;20112;-49
2023/07/06 08:51:22;;;;;;;30.70;17.70;;;;;;;17.98;93.08;101631.34;5052454;28;20358;-49
2023/07/06 08:54:02;;;;;;;27.70;15.90;;;;;;;18.14;94.09;101632.41;5052538;28;20384;-45
2023/07/06 08:56:34;;;;;;;23.27;14.38;;;;;;;18.06;92.73;101637.56;5051351;28;20025;-44
2023/07/06 08:59:02;;;;;;;24.20;15.07;;;;;;;18.14;92.79;101644.56;5052758;28;20021;-44
2023/07/06 09:01:30;;;;;;;22.88;14.38;;;;;;;18.27;90.19;101630.81;5051830;28;20029;-46
2023/07/06 09:04:00;;;;;;;24.33;12.98;;;;;;;18.44;90.43;101638.81;5052100;28;20492;-49
2023/07/06 09:06:29;;;;;;;24.77;13.30;;;;;;;18.51;86.51;101637.97;5052199;28;20025;-44
2023/07/06 09:09:02;;;;;;;27.85;11.95;;;;;;;18.66;88.19;101634.66;5051731;28;20036;-45
2023/07/06 09:11:33;;;;;;;29.00;12.30;;;;;;;18.93;87.60;101648.84;5051815;28;20029;-49
2023/07/06 09:14:05;;;;;;;21.42;12.07;;;;;;;19.08;83.59;101643.72;5052334;28;20032;-44
2023/07/06 09:16:35;;;;;;;20.13;10.93;;;;;;;19.32;82.42;101642.13;5051470;28;20032;-49
2023/07/06 09:19:08;;;;;;;20.13;11.05;;;;;;;19.59;83.70;101651.00;5052100;28;20013;-43
2023/07/06 09:21:34;;;;;;;17.55;10.23;;;;;;;19.56;83.08;101637.88;5051981;28;20063;-50
2023/07/06 09:24:00;;;;;;;20.00;11.32;;;;;;;19.39;79.19;101651.78;5051344;28;20080;-44
2023/07/06 09:26:34;;;;;;;23.60;11.70;;;;;;;19.24;80.98;101646.44;5051741;28;20029;-49
2023/07/06 09:29:32;;;;;;;21.35;12.27;;;;;;;19.22;81.39;101648.16;5052339;28;20056;-44
2023/07/06 09:32:16;;;;;;;19.30;11.25;;;;;;;19.34;82.79;101652.59;5051358;28;20477;-43
2023/07/06 09:34:46;;;;;;;20.15;11.20;;;;;;;19.51;80.65;101637.00;5051976;28;20044;-48
2023/07/06 09:37:13;;;;;;;19.67;10.38;;;;;;;19.62;79.31;101642.28;5051425;28;20021;-44
2023/07/06 09:39:39;;;;;;;20.35;9.63;;;;;;;19.63;80.25;101644.03;5051545;28;20028;-49
2023/07/06 09:42:08;;;;;;;18.48;9.20;;;;;;;19.74;78.81;101643.22;5051973;28;20025;-45
2023/07/06 09:44:34;;;;;;;15.07;7.85;;;;;;;19.94;77.09;101649.44;5050954;28;20025;-49
2023/07/06 09:46:59;;;;;;;18.25;7.75;;;;;;;19.92;77.56;101646.78;5051887;28;20074;-47
2023/07/06 09:49:37;;;;;;;15.20;7.40;;;;;;;19.83;74.96;101649.38;5054971;28;20032;-44
2023/07/06 09:52:10;;;;;;;17.13;7.45;;;;;;;19.78;76.40;101648.44;5055105;28;20070;-48
2023/07/06 09:55:03;;;;;;;18.00;6.75;;;;;;;19.64;77.50;101657.13;5055246;28;20028;-48
2023/07/06 09:57:34;;;;;;;16.50;6.25;;;;;;;19.74;76.45;101658.91;5055305;28;20033;-48
2023/07/06 10:00:00;;;;;;;15.50;6.70;;;;;;;19.89;76.75;101652.03;5054664;28;20488;-49
2023/07/06 10:02:41;;;;;;;17.77;6.07;;;;;;;19.96;76.94;101650.28;5055248;28;20025;-49
2023/07/06 10:05:24;;;;;;;15.93;6.38;;;;;;;19.84;76.30;101652.00;5054897;28;20120;-48
2023/07/06 10:08:11;;;;;;;17.10;6.43;;;;;;;20.06;77.49;101655.59;5055242;28;20017;-49
2023/07/06 10:11:09;;;;;;;22.08;7.40;;;;;;;20.18;75.65;101648.63;5055135;28;20040;-49
2023/07/06 10:14:07;;;;;;;17.30;6.75;;;;;;;20.36;72.37;101653.91;5054138;28;20032;-43
2023/07/06 10:17:12;;;;;;;16.77;6.18;;;;;;;20.75;72.90;101653.09;5053653;28;20032;-43
2023/07/06 10:20:06;;;;;;;12.45;5.60;;;;;;;20.55;72.66;101643.44;5046097;28;20507;-49
2023/07/06 10:22:38;;;;;;;14.98;5.63;;;;;;;20.85;69.17;101644.34;5054523;28;20126;-43
2023/07/06 10:25:22;;;;;;;11.07;4.10;;;;;;;21.46;63.83;101643.38;5055146;28;20037;-49
2023/07/06 10:27:55;;;;;;;13.23;4.20;;;;;;;21.64;60.61;101639.88;5054216;28;20033;-46
2023/07/06 10:30:33;;;;;;;10.15;3.20;;;;;;;22.14;60.72;101639.63;5054846;28;20435;-47
2023/07/06 10:33:06;;;;;;;9.77;3.17;;;;;;;21.76;57.27;101644.19;5054403;28;20029;-45
2023/07/06 10:35:39;;;;;;;7.55;3.00;;;;;;;22.22;54.18;101639.56;5054307;28;20025;-48
2023/07/06 10:38:10;;;;;;;10.93;3.30;;;;;;;22.91;54.29;101639.06;5054863;28;20029;-48
2023/07/06 10:40:37;;;;;;;10.32;3.20;;;;;;;23.12;51.83;101642.38;5053817;28;20103;-45
2023/07/06 10:43:14;;;;;;;;;;;;;;;23.61;54.44;101638.38;5055125;28;20048;-48
2023/07/06 10:45:54;;;;;;;15.27;3.50;;;;;;;24.28;48.53;101633.97;5054384;28;19913;-49
2023/07/06 10:48:34;;;;;;;11.70;3.15;;;;;;;23.93;48.20;101643.25;5053789;28;20377;-50
2023/07/06 10:51:22;;;;;;;10.63;2.80;;;;;;;23.66;50.35;101644.44;5054507;28;20512;-43
2023/07/06 10:54:01;;;;;;;12.38;3.45;;;;;;;23.62;49.06;101643.59;5054514;28;20542;-47
2023/07/06 10:56:30;;;;;;;14.07;3.22;;;;;;;24.06;49.47;101635.19;5054008;28;20070;-44
2023/07/06 10:58:59;;;;;;;8.23;3.00;;;;;;;24.88;46.70;101644.44;5053872;28;20017;-49
2023/07/06 11:01:33;;;;;;;10.95;3.17;;;;;;;25.04;45.35;101637.16;5053244;28;20029;-47
2023/07/06 11:04:37;;;;;;;9.05;2.80;;;;;;;25.69;45.71;101654.38;5054281;28;20033;-49
2023/07/06 11:07:06;;;;;;;8.68;2.80;;;;;;;25.91;40.47;101647.75;5054048;28;20021;-44
2023/07/06 11:10:07;;;;;;;8.77;2.50;;;;;;;26.18;41.37;101649.84;5053018;28;20028;-45
2023/07/06 11:12:33;;;;;;;9.75;2.75;;;;;;;24.48;42.55;101656.50;5053885;28;20025;-47
2023/07/06 11:15:15;;;;;;;8.35;2.80;;;;;;;23.84;46.56;101656.50;5054209;28;20025;-49
2023/07/06 11:17:48;;;;;;;7.95;2.65;;;;;;;23.10;46.07;101659.91;5053538;28;20078;-48
2023/07/06 11:20:32;;;;;;;8.80;2.38;;;;;;;23.04;49.06;101662.63;5053917;28;20027;-49